createdAt,value
2019-05-10T00:00:15.552Z,99162.19
2019-05-10T00:03:02.595Z,99161.12
2019-05-10T00:05:49.931Z,99158.84
2019-05-10T00:08:36.572Z,99167.89
2019-05-10T00:11:34.539Z,99164.41
2019-05-10T00:14:18.291Z,99166.94
2019-05-10T00:16:48.237Z,99166.34
2019-05-10T00:19:16.998Z,99171.00
2019-05-10T00:21:45.759Z,99175.55
2019-05-10T00:24:14.434Z,99172.13
2019-05-10T00:26:43.122Z,99176.45
2019-05-10T00:29:12.054Z,99170.66
2019-05-10T00:31:40.961Z,99171.39
2019-05-10T00:34:09.977Z,99169.86
2019-05-10T00:36:38.701Z,99176.02
2019-05-10T00:39:07.726Z,99177.41
2019-05-10T00:41:36.418Z,99174.75
2019-05-10T00:44:05.255Z,99177.66
2019-05-10T00:46:33.952Z,99180.57
2019-05-10T00:49:02.624Z,99181.88
2019-05-10T00:51:31.290Z,99179.48
2019-05-10T00:53:59.976Z,99177.11
2019-05-10T00:56:28.689Z,99186.97
2019-05-10T00:58:57.371Z,99187.52
2019-05-10T01:01:26.029Z,99183.50
2019-05-10T01:03:54.759Z,99190.73
2019-05-10T01:06:23.457Z,99190.73
2019-05-10T01:08:52.161Z,99190.41
2019-05-10T01:11:20.838Z,99199.92
2019-05-10T01:13:49.513Z,99205.55
2019-05-10T01:16:18.599Z,99196.53
2019-05-10T01:18:47.275Z,99199.45
2019-05-10T01:21:15.968Z,99203.70
2019-05-10T01:23:44.659Z,99198.13
2019-05-10T01:26:13.393Z,99202.86
2019-05-10T01:28:42.065Z,99199.41
2019-05-10T01:31:10.753Z,99209.48
2019-05-10T01:33:39.487Z,99213.44
2019-05-10T01:36:08.158Z,99214.46
2019-05-10T01:38:36.845Z,99223.48
2019-05-10T01:41:05.496Z,99225.64
2019-05-10T01:43:34.161Z,99217.89
2019-05-10T01:46:02.928Z,99226.08
2019-05-10T01:48:31.611Z,99223.13
2019-05-10T01:51:00.270Z,99229.78
2019-05-10T01:53:28.941Z,99227.41
2019-05-10T01:55:57.594Z,99222.39
2019-05-10T01:58:26.259Z,99227.94
2019-05-10T02:00:55.024Z,99226.87
2019-05-10T02:03:23.688Z,99230.38
2019-05-10T02:05:52.348Z,99238.09
2019-05-10T02:08:21.044Z,99237.56
2019-05-10T02:10:49.696Z,99238.34
2019-05-10T02:13:18.353Z,99241.32
2019-05-10T02:15:47.035Z,99238.94
2019-05-10T02:18:15.839Z,99245.52
2019-05-10T02:20:44.499Z,99245.59
2019-05-10T02:23:13.199Z,99240.52
2019-05-10T02:25:41.856Z,99251.70
2019-05-10T02:28:10.598Z,99261.04
2019-05-10T02:30:39.288Z,99248.78
2019-05-10T02:33:07.941Z,99254.91
2019-05-10T02:35:36.627Z,99255.75
2019-05-10T02:38:05.296Z,99254.64
2019-05-10T02:40:33.961Z,99258.33
2019-05-10T02:43:02.637Z,99254.84
2019-05-10T02:45:31.357Z,99262.30
2019-05-10T02:48:00.013Z,99270.30
2019-05-10T02:50:28.706Z,99267.33
2019-05-10T02:52:57.382Z,99263.82
2019-05-10T02:55:26.607Z,99267.98
2019-05-10T02:57:55.612Z,99263.08
2019-05-10T03:00:25.550Z,99268.83
2019-05-10T03:02:56.095Z,99269.87
2019-05-10T03:05:28.441Z,99275.16
2019-05-10T03:07:58.837Z,99275.16
2019-05-10T03:10:31.531Z,99276.13
2019-05-10T03:13:01.444Z,99281.91
2019-05-10T03:15:37.320Z,99281.53
2019-05-10T03:18:07.127Z,99286.56
2019-05-10T03:20:38.446Z,99287.44
2019-05-10T03:23:10.460Z,99289.41
2019-05-10T03:25:39.191Z,99295.41
2019-05-10T03:28:07.857Z,99293.71
2019-05-10T03:30:36.609Z,99296.93
2019-05-10T03:33:05.297Z,99308.98
2019-05-10T03:35:34.253Z,99313.11
2019-05-10T03:38:02.916Z,99313.20
2019-05-10T03:40:32.656Z,99315.17
2019-05-10T03:43:01.310Z,99320.06
2019-05-10T03:45:29.987Z,99319.79
2019-05-10T03:47:58.639Z,99320.95
2019-05-10T03:50:27.325Z,99314.86
2019-05-10T03:52:55.978Z,99324.19
2019-05-10T03:55:24.639Z,99335.02
2019-05-10T03:57:53.321Z,99337.27
2019-05-10T04:00:23.618Z,99325.27
2019-05-10T04:02:52.275Z,99335.64
2019-05-10T04:05:20.949Z,99336.48
2019-05-10T04:07:49.604Z,99342.17
2019-05-10T04:10:20.941Z,99339.72
2019-05-10T04:12:48.846Z,99331.07
2019-05-10T04:15:17.594Z,99336.51
2019-05-10T04:17:50.176Z,99338.34
2019-05-10T04:20:16.795Z,99340.45
2019-05-10T04:22:45.508Z,99341.98
2019-05-10T04:25:14.345Z,99341.34
2019-05-10T04:27:43.006Z,99349.14
2019-05-10T04:30:12.248Z,99344.33
2019-05-10T04:32:40.899Z,99342.94
2019-05-10T04:35:09.689Z,99349.95
2019-05-10T04:37:38.340Z,99346.05
2019-05-10T04:40:07.558Z,99351.36
2019-05-10T04:42:36.243Z,99360.53
2019-05-10T04:45:05.613Z,99357.45
2019-05-10T04:47:34.262Z,99359.52
2019-05-10T04:50:02.971Z,99363.80
2019-05-10T04:52:31.657Z,99362.55
2019-05-10T04:55:00.342Z,99374.55
2019-05-10T04:57:29.009Z,99374.30
2019-05-10T04:59:57.688Z,99370.97
2019-05-10T05:02:26.383Z,99372.01
2019-05-10T05:04:55.056Z,99372.88
2019-05-10T05:07:23.722Z,99379.72
2019-05-10T05:09:52.402Z,99376.47
2019-05-10T05:12:21.068Z,99378.88
2019-05-10T05:14:49.749Z,99374.45
2019-05-10T05:17:18.405Z,99379.77
2019-05-10T05:19:47.107Z,99375.64
2019-05-10T05:22:15.812Z,99377.52
2019-05-10T05:24:44.512Z,99381.19
2019-05-10T05:27:13.181Z,99385.31
2019-05-10T05:29:41.850Z,99383.09
2019-05-10T05:32:13.336Z,99381.51
2019-05-10T05:34:40.941Z,99379.68
2019-05-10T05:37:09.600Z,99384.89
2019-05-10T05:39:38.334Z,99386.59
2019-05-10T05:42:06.967Z,99388.09
2019-05-10T05:44:35.633Z,99390.31
2019-05-10T05:47:04.969Z,99381.51
2019-05-10T05:49:33.895Z,99380.19
2019-05-10T05:52:02.552Z,99381.88
2019-05-10T05:54:31.245Z,99393.89
2019-05-10T05:56:59.911Z,99390.99
2019-05-10T05:59:28.576Z,99391.87
2019-05-10T06:02:00.589Z,99385.95
2019-05-10T06:04:27.657Z,99385.67
2019-05-10T06:06:59.249Z,99388.91
2019-05-10T06:09:31.877Z,99393.13
2019-05-10T06:11:57.150Z,99395.05
2019-05-10T06:14:25.843Z,99397.45
2019-05-10T06:16:54.516Z,99403.53
2019-05-10T06:19:29.414Z,99404.75
2019-05-10T06:21:58.132Z,99411.91
2019-05-10T06:24:24.016Z,99415.14
2019-05-10T06:26:52.720Z,99409.92
2019-05-10T06:29:21.388Z,99418.45
2019-05-10T06:31:50.066Z,99423.88
2019-05-10T06:34:18.730Z,99416.06
2019-05-10T06:36:47.419Z,99423.09
2019-05-10T06:39:16.102Z,99419.70
2019-05-10T06:41:49.949Z,99429.77
2019-05-10T06:44:15.164Z,99432.53
2019-05-10T06:46:43.830Z,99431.05
2019-05-10T06:49:12.523Z,99435.95
2019-05-10T06:51:42.812Z,99434.27
2019-05-10T06:54:11.622Z,99443.19
2019-05-10T06:56:40.302Z,99436.80
2019-05-10T06:59:13.339Z,99446.29
2019-05-10T07:01:45.874Z,99447.19
2019-05-10T07:04:09.769Z,99444.37
2019-05-10T07:06:38.433Z,99448.15
2019-05-10T07:09:07.578Z,99445.60
2019-05-10T07:11:36.248Z,99454.13
2019-05-10T07:14:05.002Z,99455.73
2019-05-10T07:16:34.105Z,99460.23
2019-05-10T07:19:02.779Z,99457.78
2019-05-10T07:21:31.479Z,99467.27
2019-05-10T07:24:00.182Z,99469.19
2019-05-10T07:26:28.845Z,99466.63
2019-05-10T07:28:59.250Z,99465.38
2019-05-10T07:31:27.919Z,99465.36
2019-05-10T07:33:56.595Z,99469.45
2019-05-10T07:36:27.258Z,99467.70
2019-05-10T07:38:55.818Z,99482.53
2019-05-10T07:41:26.648Z,99476.70
2019-05-10T07:44:00.396Z,99488.52
2019-05-10T07:46:25.279Z,99486.94
2019-05-10T07:48:54.102Z,99490.89
2019-05-10T07:51:28.306Z,99494.81
2019-05-10T07:53:57.092Z,99500.60
2019-05-10T07:56:23.534Z,99502.75
2019-05-10T07:58:52.192Z,99502.14
2019-05-10T08:01:30.783Z,99511.09
2019-05-10T08:03:52.526Z,99514.09
2019-05-10T08:06:21.317Z,99520.23
2019-05-10T08:08:49.973Z,99523.22
2019-05-10T08:11:19.165Z,99530.26
2019-05-10T08:13:48.610Z,99527.09
2019-05-10T08:16:22.743Z,99535.08
2019-05-10T08:18:49.735Z,99534.63
2019-05-10T08:21:22.139Z,99534.48
2019-05-10T08:23:48.754Z,99542.59
2019-05-10T08:26:21.969Z,99538.80
2019-05-10T08:28:47.895Z,99543.25
2019-05-10T08:31:16.640Z,99550.58
2019-05-10T08:33:56.179Z,99548.91
2019-05-10T08:36:15.696Z,99561.16
2019-05-10T08:38:50.036Z,99561.08
2019-05-10T08:41:18.372Z,99579.43
2019-05-10T08:43:45.505Z,99572.86
2019-05-10T08:46:19.479Z,99578.09
2019-05-10T08:48:50.332Z,99588.48
2019-05-10T08:51:15.751Z,99587.28
2019-05-10T08:53:47.105Z,99591.97
2019-05-10T08:56:20.904Z,99591.36
2019-05-10T08:58:45.238Z,99610.02
2019-05-10T09:01:25.844Z,99606.56
2019-05-10T09:03:47.141Z,99599.30
2019-05-10T09:06:16.986Z,99612.06
2019-05-10T09:08:45.153Z,99605.52
2019-05-10T09:11:16.231Z,99608.97
2019-05-10T09:13:46.204Z,99618.52
2019-05-10T09:16:14.642Z,99616.67
2019-05-10T09:18:50.309Z,99618.09
2019-05-10T09:21:14.478Z,99616.69
2019-05-10T09:23:43.348Z,99628.66
2019-05-10T09:26:16.472Z,99630.27
2019-05-10T09:28:42.404Z,99634.50
2019-05-10T09:31:18.701Z,99639.84
2019-05-10T09:33:49.293Z,99629.16
2019-05-10T09:36:12.487Z,99623.53
2019-05-10T09:38:43.534Z,99630.75
2019-05-10T09:41:11.989Z,99650.55
2019-05-10T09:43:48.336Z,99656.70
2019-05-10T09:46:11.488Z,99663.14
2019-05-10T09:48:44.721Z,99664.58
2019-05-10T09:51:13.676Z,99668.95
2019-05-10T09:53:42.637Z,99671.64
2019-05-10T09:56:11.291Z,99671.50
2019-05-10T09:58:40.002Z,99677.45
2019-05-10T10:01:17.713Z,99687.03
2019-05-10T10:03:43.308Z,99685.32
2019-05-10T10:06:11.364Z,99689.39
2019-05-10T10:08:43.406Z,99700.08
2019-05-10T10:11:15.684Z,99700.00
2019-05-10T10:13:43.926Z,99706.46
2019-05-10T10:16:14.666Z,99710.97
2019-05-10T10:18:41.852Z,99708.27
2019-05-10T10:21:13.133Z,99714.33
2019-05-10T10:23:40.999Z,99711.19
2019-05-10T10:26:12.572Z,99709.30
2019-05-10T10:28:40.028Z,99711.70
2019-05-10T10:31:08.786Z,99703.31
2019-05-10T10:33:38.025Z,99708.61
2019-05-10T10:36:10.001Z,99701.42
2019-05-10T10:38:45.274Z,99708.66
2019-05-10T10:41:08.245Z,99699.28
2019-05-10T10:43:37.399Z,99695.18
2019-05-10T10:46:12.102Z,99688.61
2019-05-10T10:48:37.071Z,99698.61
2019-05-10T10:51:08.093Z,99695.63
2019-05-10T10:53:36.315Z,99702.10
2019-05-10T10:56:07.472Z,99698.85
2019-05-10T10:58:35.519Z,99703.64
2019-05-10T11:01:10.863Z,99710.64
2019-05-10T11:03:34.681Z,99704.64
2019-05-10T11:06:03.365Z,99706.19
2019-05-10T11:08:33.230Z,99706.83
2019-05-10T11:11:02.846Z,99709.64
2019-05-10T11:13:57.549Z,99715.64
2019-05-10T11:16:09.700Z,99726.24
2019-05-10T11:18:32.366Z,99739.77
2019-05-10T11:21:01.965Z,99746.66
2019-05-10T11:23:38.654Z,99746.27
2019-05-10T11:26:01.520Z,99755.74
2019-05-10T11:28:38.770Z,99750.37
2019-05-10T11:31:01.169Z,99752.06
2019-05-10T11:33:33.345Z,99751.80
2019-05-10T11:36:03.948Z,99744.03
2019-05-10T11:38:31.726Z,99749.94
2019-05-10T11:41:01.972Z,99747.23
2019-05-10T11:43:31.417Z,99759.48
2019-05-10T11:46:00.248Z,99749.03
2019-05-10T11:48:36.914Z,99769.32
2019-05-10T11:50:59.319Z,99757.19
2019-05-10T11:53:27.975Z,99759.05
2019-05-10T11:55:56.633Z,99767.30
2019-05-10T11:58:25.344Z,99762.85
2019-05-10T12:00:59.355Z,99756.75
2019-05-10T12:03:24.423Z,99760.34
2019-05-10T12:06:04.555Z,99763.59
2019-05-10T12:08:23.547Z,99762.59
2019-05-10T12:10:56.632Z,99772.29
2019-05-10T12:13:24.953Z,99772.80
2019-05-10T12:15:53.066Z,99776.64
2019-05-10T12:18:26.969Z,99769.24
2019-05-10T12:21:08.049Z,99769.74
2019-05-10T12:23:30.145Z,99776.91
2019-05-10T12:26:59.195Z,99777.39
2019-05-10T12:28:28.560Z,99789.01
2019-05-10T12:30:53.745Z,99774.86
2019-05-10T12:33:25.783Z,99777.39
2019-05-10T12:35:52.913Z,99775.66
2019-05-10T12:38:23.582Z,99788.84
2019-05-10T12:40:52.009Z,99775.58
2019-05-10T12:43:21.205Z,99783.98
2019-05-10T12:45:51.775Z,99789.03
2019-05-10T12:48:23.208Z,99777.52
2019-05-10T12:50:54.476Z,99768.95
2019-05-10T12:53:21.572Z,99785.46
2019-05-10T12:55:50.340Z,99786.89
2019-05-10T12:58:19.020Z,99786.51
2019-05-10T13:00:52.534Z,99788.27
2019-05-10T13:03:19.477Z,99792.18
2019-05-10T13:05:53.174Z,99794.94
2019-05-10T13:08:18.907Z,99802.04
2019-05-10T13:10:49.913Z,99815.67
2019-05-10T13:13:23.748Z,99802.20
2019-05-10T13:15:48.329Z,99802.08
2019-05-10T13:18:16.978Z,99814.80
2019-05-10T13:20:45.819Z,99811.79
2019-05-10T13:23:16.339Z,99807.89
2019-05-10T13:25:44.964Z,99813.42
2019-05-10T13:28:13.641Z,99812.19
2019-05-10T13:30:42.412Z,99814.56
2019-05-10T13:33:11.062Z,99814.58
2019-05-10T13:35:39.719Z,99821.41
2019-05-10T13:38:08.402Z,99819.89
2019-05-10T13:40:39.013Z,99816.15
2019-05-10T13:43:07.441Z,99822.06
2019-05-10T13:45:37.866Z,99827.34
2019-05-10T13:48:07.871Z,99822.39
2019-05-10T13:50:36.538Z,99821.89
2019-05-10T13:53:05.296Z,99818.05
2019-05-10T13:55:34.009Z,99823.85
2019-05-10T13:58:02.680Z,99830.55
2019-05-10T14:00:34.208Z,99818.72
2019-05-10T14:03:04.837Z,99822.14
2019-05-10T14:05:32.291Z,99828.94
2019-05-10T14:08:00.945Z,99831.42
2019-05-10T14:10:29.715Z,99833.83
2019-05-10T14:13:02.713Z,99827.83
2019-05-10T14:15:28.750Z,99837.89
2019-05-10T14:17:57.454Z,99830.44
2019-05-10T14:20:27.730Z,99838.00
2019-05-10T14:22:58.784Z,99843.73
2019-05-10T14:25:29.500Z,99840.03
2019-05-10T14:27:57.376Z,99848.40
2019-05-10T14:30:26.099Z,99835.63
2019-05-10T14:32:54.779Z,99849.80
2019-05-10T14:35:24.563Z,99850.63
2019-05-10T14:37:53.283Z,99849.13
2019-05-10T14:40:27.844Z,99846.17
2019-05-10T14:42:52.358Z,99856.49
2019-05-10T14:45:21.403Z,99856.74
2019-05-10T14:47:50.681Z,99850.13
2019-05-10T14:50:25.564Z,99856.09
2019-05-10T14:52:50.063Z,99857.83
2019-05-10T14:55:18.712Z,99856.00
2019-05-10T14:57:47.373Z,99862.15
2019-05-10T15:00:17.404Z,99859.23
2019-05-10T15:02:46.055Z,99863.84
2019-05-10T15:05:16.354Z,99880.98
2019-05-10T15:07:45.349Z,99882.68
2019-05-10T15:10:14.252Z,99886.13
2019-05-10T15:12:42.931Z,99883.74
2019-05-10T15:15:11.943Z,99883.50
2019-05-10T15:17:40.667Z,99892.11
2019-05-10T15:20:09.596Z,99890.39
2019-05-10T15:22:38.264Z,99899.74
2019-05-10T15:25:07.175Z,99896.96
2019-05-10T15:27:35.859Z,99903.93
2019-05-10T15:30:08.019Z,99901.09
2019-05-10T15:32:35.987Z,99895.46
2019-05-10T15:35:07.912Z,99896.02
2019-05-10T15:37:40.579Z,99904.56
2019-05-10T15:40:07.963Z,99903.26
2019-05-10T15:42:38.449Z,99908.00
2019-05-10T15:45:12.045Z,99923.37
2019-05-10T15:47:49.936Z,99929.16
2019-05-10T15:50:09.133Z,99920.61
2019-05-10T15:52:39.626Z,99917.14
2019-05-10T15:55:08.413Z,99915.96
2019-05-10T15:57:37.066Z,99912.38
2019-05-10T16:00:06.452Z,99914.61
2019-05-10T16:02:35.137Z,99912.36
2019-05-10T16:05:22.230Z,99899.38
2019-05-10T16:07:34.399Z,99905.77
2019-05-10T16:10:03.111Z,99910.46
2019-05-10T16:12:31.761Z,99913.97
2019-05-10T16:15:00.445Z,99917.97
2019-05-10T16:17:29.126Z,99924.91
2019-05-10T16:20:00.234Z,99924.25
2019-05-10T16:22:30.233Z,99927.18
2019-05-10T16:25:01.047Z,99930.41
2019-05-10T16:27:33.916Z,99929.48
2019-05-10T16:29:59.421Z,99922.25
2019-05-10T16:32:29.440Z,99927.34
2019-05-10T16:34:58.469Z,99927.80
2019-05-10T16:37:27.124Z,99935.67
2019-05-10T16:39:55.823Z,99934.09
2019-05-10T16:42:27.831Z,99940.64
2019-05-10T16:44:54.832Z,99932.02
2019-05-10T16:47:23.507Z,99939.66
2019-05-10T16:49:53.316Z,99944.02
2019-05-10T16:52:25.993Z,99941.07
2019-05-10T16:54:58.121Z,99937.55
2019-05-10T16:57:23.394Z,99939.17
2019-05-10T16:59:52.079Z,99936.01
2019-05-10T17:02:20.731Z,99939.47
2019-05-10T17:04:49.380Z,99938.42
2019-05-10T17:07:18.958Z,99934.16
2019-05-10T17:09:49.553Z,99937.98
2019-05-10T17:12:21.948Z,99932.47
2019-05-10T17:14:50.613Z,99930.92
2019-05-10T17:17:19.717Z,99931.93
2019-05-10T17:19:48.446Z,99934.70
2019-05-10T17:22:17.117Z,99941.48
2019-05-10T17:24:45.794Z,99942.61
2019-05-10T17:27:14.544Z,99943.86
2019-05-10T17:29:44.530Z,99941.67
2019-05-10T17:32:13.648Z,99948.77
2019-05-10T17:34:42.305Z,99949.52
2019-05-10T17:37:10.979Z,99948.53
2019-05-10T17:39:39.623Z,99953.73
2019-05-10T17:42:08.384Z,99942.38
2019-05-10T17:44:37.051Z,99946.02
2019-05-10T17:47:05.728Z,99941.02
2019-05-10T17:49:34.403Z,99946.23
2019-05-10T17:52:03.099Z,99941.84
2019-05-10T17:54:33.863Z,99946.52
2019-05-10T17:57:02.157Z,99940.34
2019-05-10T17:59:30.827Z,99939.95
2019-05-10T18:01:59.558Z,99940.88
2019-05-10T18:04:28.238Z,99944.60
2019-05-10T18:06:56.891Z,99943.12
2019-05-10T18:09:25.544Z,99939.20
2019-05-10T18:11:54.229Z,99944.55
2019-05-10T18:14:22.880Z,99946.95
2019-05-10T18:16:51.532Z,99946.20
2019-05-10T18:19:24.814Z,99948.16
2019-05-10T18:21:54.962Z,99944.48
2019-05-10T18:24:20.977Z,99951.73
2019-05-10T18:26:49.665Z,99963.44
2019-05-10T18:29:18.385Z,99962.66
2019-05-10T18:31:54.822Z,99959.29
2019-05-10T18:34:17.415Z,99961.30
2019-05-10T18:36:51.563Z,99963.07
2019-05-10T18:39:17.764Z,99971.50
2019-05-10T18:41:48.015Z,99964.72
2019-05-10T18:44:16.765Z,99965.38
2019-05-10T18:46:45.417Z,99973.77
2019-05-10T18:49:14.077Z,99972.44
2019-05-10T18:51:42.768Z,99969.54
2019-05-10T18:54:11.519Z,99975.83
2019-05-10T18:56:40.173Z,99969.80
2019-05-10T18:59:09.432Z,99973.47
2019-05-10T19:01:40.299Z,99978.91
2019-05-10T19:04:14.222Z,99976.36
2019-05-10T19:06:44.173Z,99985.90
2019-05-10T19:09:09.542Z,99993.66
2019-05-10T19:11:38.949Z,99994.41
2019-05-10T19:14:08.635Z,100002.98
2019-05-10T19:16:37.312Z,100001.02
2019-05-10T19:19:05.991Z,100004.40
2019-05-10T19:21:37.710Z,100003.09
2019-05-10T19:24:05.047Z,100000.64
2019-05-10T19:26:33.700Z,100004.71
2019-05-10T19:29:05.438Z,100000.03
2019-05-10T19:31:37.950Z,100006.03
2019-05-10T19:34:03.221Z,100002.14
2019-05-10T19:36:31.903Z,99992.23
2019-05-10T19:39:00.562Z,99992.16
2019-05-10T19:41:29.221Z,100001.45
2019-05-10T19:44:02.528Z,100001.93
2019-05-10T19:46:30.095Z,100010.33
2019-05-10T19:48:58.759Z,100012.98
2019-05-10T19:51:27.418Z,100018.09
2019-05-10T19:53:56.124Z,100014.34
2019-05-10T19:56:30.102Z,100019.55
2019-05-10T19:58:55.252Z,100017.05
2019-05-10T20:01:23.912Z,100025.28
2019-05-10T20:03:52.594Z,100026.27
2019-05-10T20:06:21.276Z,100027.52
2019-05-10T20:08:49.941Z,100026.91
2019-05-10T20:11:18.621Z,100034.53
2019-05-10T20:13:47.321Z,100039.38
2019-05-10T20:16:15.982Z,100049.31
2019-05-10T20:18:44.638Z,100049.31
2019-05-10T20:21:13.385Z,100044.47
2019-05-10T20:23:41.988Z,100041.39
2019-05-10T20:26:10.645Z,100037.19
2019-05-10T20:28:39.325Z,100039.01
2019-05-10T20:31:08.060Z,100037.98
2019-05-10T20:33:36.709Z,100050.08
2019-05-10T20:36:05.407Z,100045.88
2019-05-10T20:38:34.068Z,100045.52
2019-05-10T20:41:02.728Z,100042.57
2019-05-10T20:43:31.516Z,100045.67
2019-05-10T20:46:00.176Z,100053.55
2019-05-10T20:48:28.846Z,100064.09
2019-05-10T20:50:57.577Z,100069.61
2019-05-10T20:53:26.317Z,100070.87
2019-05-10T20:55:54.974Z,100070.69
2019-05-10T20:58:23.648Z,100064.84
2019-05-10T21:00:52.315Z,100061.39
2019-05-10T21:03:20.999Z,100059.59
2019-05-10T21:05:49.975Z,100057.03
2019-05-10T21:08:18.657Z,100052.23
2019-05-10T21:10:47.312Z,100057.44
2019-05-10T21:13:16.076Z,100067.55
2019-05-10T21:15:44.778Z,100064.28
2019-05-10T21:18:13.467Z,100068.39
2019-05-10T21:20:42.128Z,100065.88
2019-05-10T21:23:10.833Z,100066.02
2019-05-10T21:25:39.497Z,100066.84
2019-05-10T21:28:08.173Z,100076.42
2019-05-10T21:30:36.869Z,100069.36
2019-05-10T21:33:05.550Z,100059.20
2019-05-10T21:35:34.215Z,100070.38
2019-05-10T21:38:02.903Z,100067.42
2019-05-10T21:40:31.561Z,100063.80
2019-05-10T21:43:00.265Z,100067.51
2019-05-10T21:45:28.930Z,100069.17
2019-05-10T21:47:57.586Z,100070.86
2019-05-10T21:50:26.270Z,100069.53
2019-05-10T21:52:54.956Z,100056.64
2019-05-10T21:55:23.613Z,100054.45
2019-05-10T21:57:52.379Z,100050.06
2019-05-10T22:00:23.925Z,100052.50
2019-05-10T22:02:52.683Z,100043.86
2019-05-10T22:05:21.379Z,100046.08
2019-05-10T22:07:50.138Z,100048.03
2019-05-10T22:10:18.877Z,100055.79
2019-05-10T22:12:47.552Z,100062.83
2019-05-10T22:15:16.246Z,100066.13
2019-05-10T22:17:44.935Z,100063.57
2019-05-10T22:20:13.745Z,100057.03
2019-05-10T22:22:42.407Z,100057.11
2019-05-10T22:25:11.165Z,100047.67
2019-05-10T22:27:39.862Z,100047.40
2019-05-10T22:30:12.152Z,100056.06
2019-05-10T22:32:40.119Z,100055.28
2019-05-10T22:35:08.950Z,100061.33
2019-05-10T22:37:37.603Z,100060.41
2019-05-10T22:40:06.679Z,100049.23
2019-05-10T22:42:35.362Z,100044.37
2019-05-10T22:45:04.174Z,100035.91
2019-05-10T22:47:32.828Z,100045.39
2019-05-10T22:50:01.493Z,100053.87
2019-05-10T22:52:30.180Z,100055.64
2019-05-10T22:55:00.606Z,100051.44
2019-05-10T22:57:29.217Z,100051.39
2019-05-10T22:59:57.902Z,100047.76
2019-05-10T23:02:26.646Z,100045.47
2019-05-10T23:04:55.263Z,100044.14
2019-05-10T23:07:23.919Z,100043.98
2019-05-10T23:09:52.606Z,100040.89
2019-05-10T23:12:21.264Z,100032.20
2019-05-10T23:14:50.002Z,100027.14
2019-05-10T23:17:18.678Z,100032.38
2019-05-10T23:19:47.337Z,100035.55
2019-05-10T23:22:16.018Z,100026.69
2019-05-10T23:24:44.758Z,100032.07
2019-05-10T23:27:13.465Z,100035.28
2019-05-10T23:29:42.148Z,100037.34
2019-05-10T23:32:10.838Z,100027.34
2019-05-10T23:34:39.546Z,100026.77
2019-05-10T23:37:08.200Z,100022.80
2019-05-10T23:39:40.918Z,100020.36
2019-05-10T23:42:07.266Z,100026.02
2019-05-10T23:44:35.974Z,100031.00
2019-05-10T23:47:04.637Z,100025.48
2019-05-10T23:49:33.408Z,100026.56
2019-05-10T23:52:02.242Z,100027.27
2019-05-10T23:54:30.930Z,100031.24
2019-05-10T23:56:59.653Z,100026.63
2019-05-10T23:59:28.308Z,100017.03
